createdAt,value
2022-08-03T00:00:37.659Z,1009.5
2022-08-03T00:01:37.670Z,1009.6
2022-08-03T00:02:37.702Z,1009.6
2022-08-03T00:03:37.722Z,1009.6
2022-08-03T00:04:37.662Z,1009.6
2022-08-03T00:05:37.668Z,1009.6
2022-08-03T00:06:37.687Z,1009.6
2022-08-03T00:07:37.655Z,1009.6
2022-08-03T00:08:40.198Z,1009.5
2022-08-03T00:09:37.657Z,1009.5
2022-08-03T00:10:37.666Z,1009.5
2022-08-03T00:11:37.665Z,1009.5
2022-08-03T00:12:37.656Z,1009.5
2022-08-03T00:13:37.669Z,1009.5
2022-08-03T00:15:37.663Z,1009.5
2022-08-03T00:16:37.668Z,1009.4
2022-08-03T00:17:52.782Z,1009.4
2022-08-03T00:18:37.666Z,1009.4
2022-08-03T00:19:37.671Z,1009.4
2022-08-03T00:20:37.670Z,1009.4
2022-08-03T00:21:37.663Z,1009.5
2022-08-03T00:22:37.667Z,1009.4
2022-08-03T00:23:52.429Z,1009.4
2022-08-03T00:24:37.664Z,1009.5
2022-08-03T00:25:37.656Z,1009.4
2022-08-03T00:26:37.664Z,1009.4
2022-08-03T00:27:37.670Z,1009.4
2022-08-03T00:28:37.664Z,1009.4
2022-08-03T00:30:00.024Z,1009.4
2022-08-03T00:30:37.658Z,1009.4
2022-08-03T00:31:51.424Z,1009.4
2022-08-03T00:32:41.373Z,1009.4
2022-08-03T00:33:58.348Z,1009.4
2022-08-03T00:34:57.367Z,1009.4
2022-08-03T00:35:50.890Z,1009.4
2022-08-03T00:36:37.668Z,1009.4
2022-08-03T00:37:41.187Z,1009.4
2022-08-03T00:38:37.668Z,1009.4
2022-08-03T00:39:37.674Z,1009.3
2022-08-03T00:40:37.670Z,1009.4
2022-08-03T00:41:37.667Z,1009.4
2022-08-03T00:42:37.678Z,1009.4
2022-08-03T00:43:37.669Z,1009.4
2022-08-03T00:44:37.670Z,1009.4
2022-08-03T00:45:37.684Z,1009.4
2022-08-03T00:46:37.675Z,1009.4
2022-08-03T00:47:37.671Z,1009.3
2022-08-03T00:48:37.669Z,1009.4
2022-08-03T00:49:37.748Z,1009.3
2022-08-03T00:50:37.674Z,1009.3
2022-08-03T00:51:37.668Z,1009.3
2022-08-03T00:52:37.667Z,1009.3
2022-08-03T00:53:37.672Z,1009.3
2022-08-03T00:54:37.673Z,1009.3
2022-08-03T00:55:37.671Z,1009.3
2022-08-03T00:56:37.671Z,1009.3
2022-08-03T00:57:37.674Z,1009.3
2022-08-03T00:58:37.681Z,1009.4
2022-08-03T00:59:37.667Z,1009.4
2022-08-03T01:00:37.676Z,1009.4
2022-08-03T01:01:37.724Z,1009.4
2022-08-03T01:02:37.676Z,1009.4
2022-08-03T01:03:37.676Z,1009.4
2022-08-03T01:04:37.671Z,1009.3
2022-08-03T01:05:37.680Z,1009.4
2022-08-03T01:06:37.680Z,1009.4
2022-08-03T01:07:37.680Z,1009.3
2022-08-03T01:08:37.681Z,1009.4
2022-08-03T01:09:37.674Z,1009.4
2022-08-03T01:10:37.675Z,1009.4
2022-08-03T01:11:37.684Z,1009.4
2022-08-03T01:12:37.675Z,1009.3
2022-08-03T01:14:03.744Z,1009.3
2022-08-03T01:14:37.699Z,1009.3
2022-08-03T01:15:37.677Z,1009.3
2022-08-03T01:16:37.677Z,1009.3
2022-08-03T01:17:37.699Z,1009.2
2022-08-03T01:18:37.681Z,1009.3
2022-08-03T01:19:37.675Z,1009.3
2022-08-03T01:20:37.683Z,1009.3
2022-08-03T01:21:37.676Z,1009.3
2022-08-03T01:22:37.681Z,1009.3
2022-08-03T01:23:37.693Z,1009.3
2022-08-03T01:24:37.690Z,1009.3
2022-08-03T01:25:37.699Z,1009.3
2022-08-03T01:26:37.695Z,1009.3
2022-08-03T01:27:37.696Z,1009.3
2022-08-03T01:28:37.692Z,1009.3
2022-08-03T01:29:37.680Z,1009.3
2022-08-03T01:30:37.687Z,1009.3
2022-08-03T01:32:58.771Z,1009.3
2022-08-03T01:33:02.615Z,1009.3
2022-08-03T01:33:37.685Z,1009.3
2022-08-03T01:34:37.684Z,1009.3
2022-08-03T01:35:38.693Z,1009.3
2022-08-03T01:36:37.687Z,1009.3
2022-08-03T01:37:38.755Z,1009.3
2022-08-03T01:38:37.696Z,1009.2
2022-08-03T01:39:37.698Z,1009.3
2022-08-03T01:40:37.715Z,1009.3
2022-08-03T01:41:37.697Z,1009.3
2022-08-03T01:42:37.709Z,1009.3
2022-08-03T01:44:26.681Z,1009.3
2022-08-03T01:44:37.690Z,1009.2
2022-08-03T01:45:37.683Z,1009.3
2022-08-03T01:46:37.710Z,1009.3
2022-08-03T01:47:37.693Z,1009.3
2022-08-03T01:48:37.698Z,1009.3
2022-08-03T01:49:37.767Z,1009.2
2022-08-03T01:50:37.689Z,1009.2
2022-08-03T01:52:04.562Z,1009.2
2022-08-03T01:52:37.688Z,1009.2
2022-08-03T01:53:37.692Z,1009.2
2022-08-03T01:54:37.689Z,1009.2
2022-08-03T01:56:37.699Z,1009.2
2022-08-03T01:58:05.391Z,1009.2
2022-08-03T01:58:37.696Z,1009.2
2022-08-03T01:59:37.695Z,1009.2
2022-08-03T02:00:37.965Z,1009.2
2022-08-03T02:02:16.116Z,1009.1
2022-08-03T02:02:38.194Z,1009.2
2022-08-03T02:03:37.693Z,1009.1
2022-08-03T02:04:37.694Z,1009.1
2022-08-03T02:05:37.695Z,1009.2
2022-08-03T02:07:01.479Z,1009.2
2022-08-03T02:07:37.694Z,1009.1
2022-08-03T02:08:37.691Z,1009.2
2022-08-03T02:09:37.693Z,1009.1
2022-08-03T02:10:37.729Z,1009.2
2022-08-03T02:11:37.697Z,1009.1
2022-08-03T02:12:37.696Z,1009.1
2022-08-03T02:13:37.692Z,1009.1
2022-08-03T02:14:37.701Z,1009.2
2022-08-03T02:15:37.690Z,1009.1
2022-08-03T02:16:37.699Z,1009.1
2022-08-03T02:17:38.986Z,1009.2
2022-08-03T02:18:37.691Z,1009.1
2022-08-03T02:19:37.696Z,1009.1
2022-08-03T02:20:37.700Z,1009.1
2022-08-03T02:21:55.786Z,1009.1
2022-08-03T02:22:37.694Z,1009.1
2022-08-03T02:23:37.694Z,1009.1
2022-08-03T02:28:37.707Z,1009.2
2022-08-03T02:29:40.091Z,1009.2
2022-08-03T02:30:37.697Z,1009.2
2022-08-03T02:31:37.701Z,1009.2
2022-08-03T02:32:37.711Z,1009.2
2022-08-03T02:33:37.711Z,1009.2
2022-08-03T02:34:37.703Z,1009.2
2022-08-03T02:35:37.705Z,1009.2
2022-08-03T02:36:37.708Z,1009.3
2022-08-03T02:37:37.699Z,1009.2
2022-08-03T02:38:37.696Z,1009.2
2022-08-03T02:39:37.707Z,1009.2
2022-08-03T02:40:37.695Z,1009.2
2022-08-03T02:41:37.709Z,1009.2
2022-08-03T02:42:37.709Z,1009.2
2022-08-03T02:43:56.773Z,1009.2
2022-08-03T02:44:37.702Z,1009.2
2022-08-03T02:45:37.853Z,1009.2
2022-08-03T02:46:37.709Z,1009.2
2022-08-03T02:47:53.903Z,1009.2
2022-08-03T02:48:37.707Z,1009.2
2022-08-03T02:49:50.452Z,1009.2
2022-08-03T02:50:37.698Z,1009.2
2022-08-03T02:51:37.725Z,1009.2
2022-08-03T02:52:37.701Z,1009.1
2022-08-03T02:53:37.713Z,1009.2
2022-08-03T02:54:37.714Z,1009.1
2022-08-03T02:55:43.192Z,1009.1
2022-08-03T02:56:37.710Z,1009.1
2022-08-03T02:57:37.702Z,1009.1
2022-08-03T02:58:37.706Z,1009.1
2022-08-03T02:59:37.705Z,1009.1
2022-08-03T03:00:37.766Z,1009.1
2022-08-03T03:01:37.701Z,1009.1
2022-08-03T03:02:37.739Z,1009.1
2022-08-03T03:03:40.000Z,1009.1
2022-08-03T03:04:37.704Z,1009.1
2022-08-03T03:05:53.654Z,1009.1
2022-08-03T03:06:37.718Z,1009.1
2022-08-03T03:07:52.890Z,1009.1
2022-08-03T03:08:37.718Z,1009.1
2022-08-03T03:09:40.483Z,1009.1
2022-08-03T03:10:37.701Z,1009.1
2022-08-03T03:11:37.708Z,1009.1
2022-08-03T03:12:37.714Z,1009.1
2022-08-03T03:13:37.708Z,1009.1
2022-08-03T03:14:37.714Z,1009.1
2022-08-03T03:15:37.705Z,1009.1
2022-08-03T03:16:37.722Z,1009.1
2022-08-03T03:17:37.718Z,1009.1
2022-08-03T03:18:37.717Z,1009.1
2022-08-03T03:19:37.712Z,1009.1
2022-08-03T03:20:37.702Z,1009.1
2022-08-03T03:22:37.722Z,1009.1
2022-08-03T03:23:37.714Z,1009.1
2022-08-03T03:24:37.707Z,1009.1
2022-08-03T03:25:37.707Z,1009.1
2022-08-03T03:26:42.303Z,1009.1
2022-08-03T03:27:37.712Z,1009.1
2022-08-03T03:28:37.727Z,1009.1
2022-08-03T03:29:39.416Z,1009.1
2022-08-03T03:30:37.717Z,1009.1
2022-08-03T03:31:37.715Z,1009.1
2022-08-03T03:32:37.722Z,1009
2022-08-03T03:33:37.723Z,1009.1
2022-08-03T03:35:39.224Z,1009
2022-08-03T03:36:37.716Z,1009.1
2022-08-03T03:37:37.720Z,1009
2022-08-03T03:38:37.720Z,1009
2022-08-03T03:39:37.715Z,1009.1
2022-08-03T03:40:37.718Z,1009.1
2022-08-03T03:42:37.714Z,1009.1
2022-08-03T03:43:37.752Z,1009.1
2022-08-03T03:44:37.718Z,1009.1
2022-08-03T03:45:37.714Z,1009.1
2022-08-03T03:46:37.961Z,1009.1
2022-08-03T03:47:37.720Z,1009.1
2022-08-03T03:48:37.727Z,1009.1
2022-08-03T03:49:37.865Z,1009.1
2022-08-03T03:50:37.746Z,1009.1
2022-08-03T03:51:37.720Z,1009.1
2022-08-03T03:52:37.717Z,1009.1
2022-08-03T03:53:37.729Z,1009.1
2022-08-03T03:54:37.720Z,1009.1
2022-08-03T03:56:37.719Z,1009.1
2022-08-03T03:57:37.725Z,1009.1
2022-08-03T03:58:37.723Z,1009.1
2022-08-03T03:59:37.717Z,1009.1
2022-08-03T04:00:37.780Z,1009.1
2022-08-03T04:01:37.731Z,1009.1
2022-08-03T04:03:37.720Z,1009.1
2022-08-03T04:04:37.735Z,1009.1
2022-08-03T04:05:37.721Z,1009.1
2022-08-03T04:06:37.726Z,1009.1
2022-08-03T04:07:37.726Z,1009.1
2022-08-03T04:08:37.719Z,1009.1
2022-08-03T04:09:37.729Z,1009.1
2022-08-03T04:10:37.727Z,1009.1
2022-08-03T04:11:37.725Z,1009.1
2022-08-03T04:12:37.719Z,1009.1
2022-08-03T04:13:37.720Z,1009.1
2022-08-03T04:14:37.725Z,1009.2
2022-08-03T04:15:37.716Z,1009.1
2022-08-03T04:16:41.911Z,1009.1
2022-08-03T04:17:37.727Z,1009.1
2022-08-03T04:18:37.731Z,1009.1
2022-08-03T04:19:37.958Z,1009.1
2022-08-03T04:20:37.732Z,1009.2
2022-08-03T04:21:37.729Z,1009.1
2022-08-03T04:22:37.735Z,1009.2
2022-08-03T04:23:37.733Z,1009.2
2022-08-03T04:24:37.730Z,1009.2
2022-08-03T04:25:37.725Z,1009.2
2022-08-03T04:26:37.733Z,1009.2
2022-08-03T04:27:37.741Z,1009.1
2022-08-03T04:28:37.728Z,1009.2
2022-08-03T04:29:38.599Z,1009.2
2022-08-03T04:30:37.728Z,1009.2
2022-08-03T04:31:37.726Z,1009.2
2022-08-03T04:32:37.773Z,1009.2
2022-08-03T04:33:37.722Z,1009.2
2022-08-03T04:34:37.731Z,1009.2
2022-08-03T04:36:01.461Z,1009.2
2022-08-03T04:36:37.739Z,1009.2
2022-08-03T04:37:37.740Z,1009.2
2022-08-03T04:38:37.727Z,1009.2
2022-08-03T04:39:37.730Z,1009.2
2022-08-03T04:42:08.384Z,1009.2
2022-08-03T04:42:37.739Z,1009.3
2022-08-03T04:43:37.738Z,1009.2
2022-08-03T04:44:37.727Z,1009.2
2022-08-03T04:45:37.738Z,1009.2
2022-08-03T04:46:37.730Z,1009.2
2022-08-03T04:47:37.750Z,1009.2
2022-08-03T04:48:37.738Z,1009.2
2022-08-03T04:49:37.934Z,1009.3
2022-08-03T04:50:37.737Z,1009.2
2022-08-03T04:51:37.739Z,1009.2
2022-08-03T04:52:37.735Z,1009.2
2022-08-03T04:53:37.742Z,1009.2
2022-08-03T04:55:37.738Z,1009.3
2022-08-03T04:56:37.739Z,1009.3
2022-08-03T04:57:37.742Z,1009.3
2022-08-03T04:58:37.742Z,1009.3
2022-08-03T04:59:39.087Z,1009.2
2022-08-03T05:00:37.745Z,1009.2
2022-08-03T05:01:37.824Z,1009.2
2022-08-03T05:02:37.751Z,1009.2
2022-08-03T05:03:37.737Z,1009.2
2022-08-03T05:04:37.741Z,1009.2
2022-08-03T05:05:50.129Z,1009.3
2022-08-03T05:07:37.748Z,1009.2
2022-08-03T05:08:46.420Z,1009.3
2022-08-03T05:09:52.313Z,1009.2
2022-08-03T05:10:37.750Z,1009.3
2022-08-03T05:11:37.749Z,1009.2
2022-08-03T05:12:37.736Z,1009.3
2022-08-03T05:13:37.742Z,1009.3
2022-08-03T05:14:37.742Z,1009.3
2022-08-03T05:15:42.826Z,1009.2
2022-08-03T05:16:37.742Z,1009.2
2022-08-03T05:17:37.751Z,1009.3
2022-08-03T05:18:37.760Z,1009.2
2022-08-03T05:20:37.748Z,1009.3
2022-08-03T05:21:50.405Z,1009.3
2022-08-03T05:22:37.745Z,1009.3
2022-08-03T05:23:37.757Z,1009.3
2022-08-03T05:24:37.745Z,1009.3
2022-08-03T05:25:37.735Z,1009.3
2022-08-03T05:26:37.771Z,1009.3
2022-08-03T05:27:37.742Z,1009.3
2022-08-03T05:28:37.753Z,1009.4
2022-08-03T05:29:37.746Z,1009.4
2022-08-03T05:30:37.749Z,1009.3
2022-08-03T05:31:37.745Z,1009.3
2022-08-03T05:32:37.754Z,1009.3
2022-08-03T05:33:37.747Z,1009.4
2022-08-03T05:34:37.753Z,1009.4
2022-08-03T05:36:00.925Z,1009.4
2022-08-03T05:36:37.747Z,1009.3
2022-08-03T05:38:37.766Z,1009.4
2022-08-03T05:39:37.751Z,1009.3
2022-08-03T05:40:37.751Z,1009.3
2022-08-03T05:41:37.763Z,1009.4
2022-08-03T05:42:37.754Z,1009.4
2022-08-03T05:43:37.751Z,1009.4
2022-08-03T05:44:37.760Z,1009.3
2022-08-03T05:45:37.754Z,1009.4
2022-08-03T05:46:37.745Z,1009.4
2022-08-03T05:47:37.756Z,1009.4
2022-08-03T05:48:37.758Z,1009.4
2022-08-03T05:49:37.821Z,1009.4
2022-08-03T05:50:42.485Z,1009.4
2022-08-03T05:51:37.761Z,1009.4
2022-08-03T05:52:37.753Z,1009.4
2022-08-03T05:53:37.763Z,1009.4
2022-08-03T05:54:56.918Z,1009.4
2022-08-03T05:55:37.762Z,1009.4
2022-08-03T05:56:37.754Z,1009.4
2022-08-03T05:57:37.759Z,1009.4
2022-08-03T05:58:37.777Z,1009.4
2022-08-03T05:59:38.678Z,1009.4
2022-08-03T06:00:37.762Z,1009.4
2022-08-03T06:01:37.782Z,1009.3
2022-08-03T06:02:37.776Z,1009.4
2022-08-03T06:03:37.761Z,1009.4
2022-08-03T06:04:37.764Z,1009.4
2022-08-03T06:05:37.765Z,1009.4
2022-08-03T06:06:37.762Z,1009.4
2022-08-03T06:07:37.767Z,1009.4
2022-08-03T06:08:37.762Z,1009.4
2022-08-03T06:10:34.866Z,1009.4
2022-08-03T06:10:38.409Z,1009.4
2022-08-03T06:11:37.770Z,1009.3
2022-08-03T06:12:37.770Z,1009.3
2022-08-03T06:13:37.764Z,1009.4
2022-08-03T06:14:37.776Z,1009.4
2022-08-03T06:15:37.771Z,1009.4
2022-08-03T06:16:37.770Z,1009.4
2022-08-03T06:17:37.952Z,1009.4
2022-08-03T06:18:37.775Z,1009.4
2022-08-03T06:19:37.758Z,1009.4
2022-08-03T06:20:37.768Z,1009.4
2022-08-03T06:21:37.776Z,1009.4
2022-08-03T06:22:37.772Z,1009.4
2022-08-03T06:23:54.122Z,1009.4
2022-08-03T06:24:37.775Z,1009.4
2022-08-03T06:25:37.776Z,1009.4
2022-08-03T06:26:37.770Z,1009.4
2022-08-03T06:27:37.799Z,1009.4
2022-08-03T06:28:52.503Z,1009.4
2022-08-03T06:29:37.778Z,1009.4
2022-08-03T06:30:37.777Z,1009.4
2022-08-03T06:31:37.772Z,1009.4
2022-08-03T06:32:37.796Z,1009.4
2022-08-03T06:34:31.327Z,1009.5
2022-08-03T06:34:37.782Z,1009.5
2022-08-03T06:35:37.776Z,1009.5
2022-08-03T06:36:37.775Z,1009.5
2022-08-03T06:37:37.786Z,1009.5
2022-08-03T06:38:37.773Z,1009.5
2022-08-03T06:39:37.781Z,1009.4
2022-08-03T06:41:38.344Z,1009.5
2022-08-03T06:42:37.779Z,1009.5
2022-08-03T06:44:03.829Z,1009.5
2022-08-03T06:44:37.786Z,1009.5
2022-08-03T06:45:37.785Z,1009.5
2022-08-03T06:46:37.792Z,1009.5
2022-08-03T06:47:37.798Z,1009.5
2022-08-03T06:48:37.781Z,1009.5
2022-08-03T06:49:37.904Z,1009.5
2022-08-03T06:50:37.779Z,1009.5
2022-08-03T06:52:38.749Z,1009.5
2022-08-03T06:53:37.781Z,1009.5
2022-08-03T06:55:41.814Z,1009.5
2022-08-03T06:56:37.783Z,1009.5
2022-08-03T06:57:37.790Z,1009.5
2022-08-03T06:58:37.800Z,1009.5
2022-08-03T07:00:09.789Z,1009.5
2022-08-03T07:00:37.792Z,1009.5
2022-08-03T07:01:37.882Z,1009.5
2022-08-03T07:02:37.794Z,1009.5
2022-08-03T07:03:37.795Z,1009.5
2022-08-03T07:04:37.788Z,1009.5
2022-08-03T07:05:37.787Z,1009.5
2022-08-03T07:06:37.792Z,1009.5
2022-08-03T07:07:37.796Z,1009.5
2022-08-03T07:08:37.790Z,1009.5
2022-08-03T07:09:37.787Z,1009.5
2022-08-03T07:10:37.799Z,1009.5
2022-08-03T07:11:37.792Z,1009.5
2022-08-03T07:13:37.794Z,1009.5
2022-08-03T07:14:37.797Z,1009.5
2022-08-03T07:16:37.791Z,1009.6
2022-08-03T07:17:37.793Z,1009.5
2022-08-03T07:18:37.790Z,1009.6
2022-08-03T07:19:37.814Z,1009.6
2022-08-03T07:20:37.805Z,1009.6
2022-08-03T07:21:37.792Z,1009.6
2022-08-03T07:22:37.805Z,1009.6
2022-08-03T07:23:37.792Z,1009.6
2022-08-03T07:24:38.084Z,1009.6
2022-08-03T07:25:37.802Z,1009.7
2022-08-03T07:26:37.803Z,1009.7
2022-08-03T07:27:37.804Z,1009.7
2022-08-03T07:28:37.808Z,1009.7
2022-08-03T07:29:37.822Z,1009.7
2022-08-03T07:30:37.832Z,1009.7
2022-08-03T07:31:37.796Z,1009.7
2022-08-03T07:32:37.808Z,1009.7
2022-08-03T07:33:37.799Z,1009.7
2022-08-03T07:34:37.798Z,1009.7
2022-08-03T07:35:37.805Z,1009.7
2022-08-03T07:37:37.808Z,1009.7
2022-08-03T07:38:37.804Z,1009.7
2022-08-03T07:39:37.815Z,1009.7
2022-08-03T07:40:37.813Z,1009.7
2022-08-03T07:41:37.809Z,1009.7
2022-08-03T07:42:37.810Z,1009.7
2022-08-03T07:43:37.814Z,1009.7
2022-08-03T07:44:37.803Z,1009.7
2022-08-03T07:45:37.808Z,1009.7
2022-08-03T07:46:37.811Z,1009.7
2022-08-03T07:47:37.812Z,1009.7
2022-08-03T07:48:37.815Z,1009.7
2022-08-03T07:49:37.934Z,1009.7
2022-08-03T07:50:37.820Z,1009.7
2022-08-03T07:51:37.826Z,1009.8
2022-08-03T07:52:37.811Z,1009.8
2022-08-03T07:53:37.924Z,1009.7
2022-08-03T07:54:37.817Z,1009.7
2022-08-03T07:55:37.821Z,1009.6
2022-08-03T07:56:37.809Z,1009.7
2022-08-03T07:58:37.821Z,1009.7
2022-08-03T07:59:56.564Z,1009.7
2022-08-03T08:00:37.820Z,1009.7
2022-08-03T08:01:37.960Z,1009.7
2022-08-03T08:02:37.839Z,1009.7
2022-08-03T08:03:41.156Z,1009.7
2022-08-03T08:04:37.810Z,1009.7
2022-08-03T08:06:37.819Z,1009.7
2022-08-03T08:07:37.829Z,1009.7
2022-08-03T08:08:37.840Z,1009.7
2022-08-03T08:09:37.976Z,1009.7
2022-08-03T08:10:37.824Z,1009.7
2022-08-03T08:11:40.111Z,1009.7
2022-08-03T08:12:37.828Z,1009.7
2022-08-03T08:13:37.844Z,1009.7
2022-08-03T08:14:37.858Z,1009.7
2022-08-03T08:15:42.875Z,1009.7
2022-08-03T08:16:37.821Z,1009.7
2022-08-03T08:17:37.826Z,1009.7
2022-08-03T08:18:37.822Z,1009.7
2022-08-03T08:19:38.341Z,1009.7
2022-08-03T08:20:38.117Z,1009.7
2022-08-03T08:21:53.193Z,1009.7
2022-08-03T08:22:37.822Z,1009.6
2022-08-03T08:23:42.463Z,1009.7
2022-08-03T08:24:37.822Z,1009.7
2022-08-03T08:25:37.827Z,1009.7
2022-08-03T08:26:37.832Z,1009.7
2022-08-03T08:28:30.666Z,1009.7
2022-08-03T08:28:37.832Z,1009.7
2022-08-03T08:29:37.830Z,1009.7
2022-08-03T08:30:37.825Z,1009.7
2022-08-03T08:31:37.827Z,1009.7
2022-08-03T08:32:37.836Z,1009.7
2022-08-03T08:34:02.716Z,1009.7
2022-08-03T08:34:37.839Z,1009.7
2022-08-03T08:35:37.835Z,1009.7
2022-08-03T08:36:37.849Z,1009.7
2022-08-03T08:37:37.835Z,1009.7
2022-08-03T08:38:37.834Z,1009.7
2022-08-03T08:39:37.833Z,1009.7
2022-08-03T08:41:37.836Z,1009.6
2022-08-03T08:42:37.837Z,1009.6
2022-08-03T08:43:37.840Z,1009.6
2022-08-03T08:44:37.842Z,1009.6
2022-08-03T08:45:37.848Z,1009.7
2022-08-03T08:46:37.851Z,1009.6
2022-08-03T08:47:51.034Z,1009.6
2022-08-03T08:48:37.844Z,1009.7
2022-08-03T08:49:37.934Z,1009.7
2022-08-03T08:51:54.759Z,1009.6
2022-08-03T08:52:37.851Z,1009.6
2022-08-03T08:53:37.850Z,1009.6
2022-08-03T08:54:37.845Z,1009.6
2022-08-03T08:55:59.732Z,1009.6
2022-08-03T08:56:37.852Z,1009.6
2022-08-03T08:57:43.131Z,1009.6
2022-08-03T08:58:37.850Z,1009.6
2022-08-03T08:59:48.735Z,1009.6
2022-08-03T09:00:37.856Z,1009.6
2022-08-03T09:01:37.936Z,1009.6
2022-08-03T09:02:37.851Z,1009.6
2022-08-03T09:03:37.860Z,1009.6
2022-08-03T09:04:37.860Z,1009.6
2022-08-03T09:06:37.857Z,1009.6
2022-08-03T09:07:37.866Z,1009.6
2022-08-03T09:08:37.861Z,1009.6
2022-08-03T09:10:11.672Z,1009.6
2022-08-03T09:10:37.866Z,1009.6
2022-08-03T09:12:42.028Z,1009.6
2022-08-03T09:13:37.876Z,1009.6
2022-08-03T09:14:45.515Z,1009.6
2022-08-03T09:15:37.855Z,1009.6
2022-08-03T09:16:37.856Z,1009.6
2022-08-03T09:17:37.863Z,1009.6
2022-08-03T09:18:37.859Z,1009.6
2022-08-03T09:19:37.861Z,1009.6
2022-08-03T09:20:37.870Z,1009.6
2022-08-03T09:21:37.858Z,1009.6
2022-08-03T09:22:37.862Z,1009.6
2022-08-03T09:23:59.799Z,1009.6
2022-08-03T09:24:41.570Z,1009.6
2022-08-03T09:25:37.871Z,1009.6
2022-08-03T09:26:37.871Z,1009.6
2022-08-03T09:27:37.869Z,1009.6
2022-08-03T09:28:58.005Z,1009.6
2022-08-03T09:29:37.862Z,1009.6
2022-08-03T09:30:37.864Z,1009.6
2022-08-03T09:31:37.874Z,1009.6
2022-08-03T09:32:37.863Z,1009.7
2022-08-03T09:33:37.861Z,1009.6
2022-08-03T09:34:37.871Z,1009.6
2022-08-03T09:35:53.723Z,1009.7
2022-08-03T09:36:37.863Z,1009.7
2022-08-03T09:38:12.106Z,1009.7
2022-08-03T09:38:37.874Z,1009.7
2022-08-03T09:39:40.961Z,1009.6
2022-08-03T09:40:37.874Z,1009.6
2022-08-03T09:41:37.876Z,1009.6
2022-08-03T09:42:37.868Z,1009.6
2022-08-03T09:43:37.908Z,1009.7
2022-08-03T09:44:37.879Z,1009.6
2022-08-03T09:45:37.869Z,1009.7
2022-08-03T09:46:37.867Z,1009.6
2022-08-03T09:47:37.882Z,1009.6
2022-08-03T09:48:37.870Z,1009.6
2022-08-03T09:49:37.929Z,1009.6
2022-08-03T09:50:37.874Z,1009.6
2022-08-03T09:52:33.660Z,1009.6
2022-08-03T09:52:49.395Z,1009.6
2022-08-03T09:53:37.903Z,1009.6
2022-08-03T09:54:37.875Z,1009.6
2022-08-03T09:56:32.706Z,1009.6
2022-08-03T09:56:37.965Z,1009.6
2022-08-03T09:57:37.875Z,1009.6
2022-08-03T09:58:37.871Z,1009.5
2022-08-03T09:59:38.079Z,1009.6
2022-08-03T10:00:37.922Z,1009.6
2022-08-03T10:01:37.901Z,1009.6
2022-08-03T10:02:37.885Z,1009.5
2022-08-03T10:04:03.441Z,1009.5
2022-08-03T10:04:37.884Z,1009.5
2022-08-03T10:05:37.888Z,1009.5
2022-08-03T10:06:37.893Z,1009.6
2022-08-03T10:07:37.891Z,1009.5
2022-08-03T10:08:37.928Z,1009.5
2022-08-03T10:09:37.902Z,1009.5
2022-08-03T10:10:37.889Z,1009.5
2022-08-03T10:11:41.752Z,1009.5
2022-08-03T10:12:37.897Z,1009.5
2022-08-03T10:13:37.886Z,1009.5
2022-08-03T10:14:37.887Z,1009.5
2022-08-03T10:16:23.006Z,1009.5
2022-08-03T10:16:37.893Z,1009.4
2022-08-03T10:17:40.343Z,1009.5
2022-08-03T10:18:37.900Z,1009.4
2022-08-03T10:19:37.890Z,1009.5
2022-08-03T10:20:37.898Z,1009.5
2022-08-03T10:21:37.926Z,1009.5
2022-08-03T10:22:37.895Z,1009.4
2022-08-03T10:23:37.893Z,1009.4
2022-08-03T10:24:37.888Z,1009.4
2022-08-03T10:25:37.895Z,1009.5
2022-08-03T10:26:37.904Z,1009.5
2022-08-03T10:27:37.895Z,1009.4
2022-08-03T10:28:42.811Z,1009.4
2022-08-03T10:29:37.896Z,1009.4
2022-08-03T10:30:37.888Z,1009.4
2022-08-03T10:31:37.895Z,1009.4
2022-08-03T10:32:37.905Z,1009.4
2022-08-03T10:33:51.253Z,1009.3
2022-08-03T10:34:42.595Z,1009.4
2022-08-03T10:35:37.892Z,1009.4
2022-08-03T10:36:37.899Z,1009.4
2022-08-03T10:37:37.925Z,1009.3
2022-08-03T10:38:37.908Z,1009.3
2022-08-03T10:39:37.895Z,1009.3
2022-08-03T10:40:54.544Z,1009.3
2022-08-03T10:41:37.902Z,1009.3
2022-08-03T10:42:37.896Z,1009.3
2022-08-03T10:43:37.898Z,1009.2
2022-08-03T10:44:37.900Z,1009.3
2022-08-03T10:45:37.906Z,1009.2
2022-08-03T10:46:44.194Z,1009.2
2022-08-03T10:47:37.907Z,1009.2
2022-08-03T10:48:37.910Z,1009.3
2022-08-03T10:49:37.954Z,1009.3
2022-08-03T10:50:37.900Z,1009.2
2022-08-03T10:51:37.910Z,1009.2
2022-08-03T10:52:41.002Z,1009.3
2022-08-03T10:53:37.909Z,1009.2
2022-08-03T10:54:37.907Z,1009.2
2022-08-03T10:55:37.897Z,1009.3
2022-08-03T10:56:48.028Z,1009.3
2022-08-03T10:57:37.907Z,1009.2
2022-08-03T10:59:37.911Z,1009.1
2022-08-03T11:00:37.979Z,1009.1
2022-08-03T11:02:00.042Z,1009.1
2022-08-03T11:02:37.909Z,1009.1
2022-08-03T11:03:37.927Z,1009.1
2022-08-03T11:04:37.923Z,1009.1
2022-08-03T11:05:37.914Z,1009.1
2022-08-03T11:06:37.917Z,1009.1
2022-08-03T11:07:37.908Z,1009.1
2022-08-03T11:08:37.913Z,1009.1
2022-08-03T11:09:37.913Z,1009.1
2022-08-03T11:10:37.910Z,1009
2022-08-03T11:11:37.917Z,1009
2022-08-03T11:12:37.925Z,1009
2022-08-03T11:13:37.937Z,1009
2022-08-03T11:14:37.937Z,1009
2022-08-03T11:15:37.921Z,1009
2022-08-03T11:16:37.926Z,1009
2022-08-03T11:17:45.778Z,1009
2022-08-03T11:18:37.933Z,1009
2022-08-03T11:20:37.929Z,1008.9
2022-08-03T11:21:37.937Z,1008.9
2022-08-03T11:22:37.926Z,1009
2022-08-03T11:24:02.417Z,1009
2022-08-03T11:24:37.926Z,1009
2022-08-03T11:25:55.119Z,1008.9
2022-08-03T11:26:37.929Z,1008.9
2022-08-03T11:27:37.927Z,1009
2022-08-03T11:28:37.931Z,1009
2022-08-03T11:29:37.937Z,1008.9
2022-08-03T11:30:37.928Z,1008.9
2022-08-03T11:31:49.728Z,1008.9
2022-08-03T11:32:38.310Z,1008.9
2022-08-03T11:33:37.932Z,1008.9
2022-08-03T11:34:37.935Z,1008.9
2022-08-03T11:35:37.931Z,1009
2022-08-03T11:36:37.932Z,1009
2022-08-03T11:37:37.926Z,1008.9
2022-08-03T11:38:37.938Z,1008.9
2022-08-03T11:39:37.934Z,1008.9
2022-08-03T11:41:42.804Z,1008.9
2022-08-03T11:42:37.935Z,1008.9
2022-08-03T11:43:37.929Z,1008.9
2022-08-03T11:44:37.936Z,1008.9
2022-08-03T11:46:37.942Z,1008.9
2022-08-03T11:47:37.944Z,1008.9
2022-08-03T11:48:37.939Z,1008.9
2022-08-03T11:49:37.997Z,1008.9
2022-08-03T11:50:37.942Z,1008.8
2022-08-03T11:51:37.994Z,1008.8
2022-08-03T11:52:37.945Z,1008.8
2022-08-03T11:53:42.031Z,1008.8
2022-08-03T11:54:37.962Z,1008.8
2022-08-03T11:55:37.944Z,1008.8
2022-08-03T11:56:37.942Z,1008.8
2022-08-03T11:59:01.190Z,1008.7
2022-08-03T11:59:16.469Z,1008.8
2022-08-03T11:59:38.835Z,1008.8
2022-08-03T12:00:37.946Z,1008.8
2022-08-03T12:02:37.940Z,1008.8
2022-08-03T12:03:38.029Z,1008.8
2022-08-03T12:04:37.949Z,1008.8
2022-08-03T12:05:37.943Z,1008.8
2022-08-03T12:06:37.950Z,1008.8
2022-08-03T12:08:04.049Z,1008.8
2022-08-03T12:08:37.955Z,1008.8
2022-08-03T12:09:37.954Z,1008.8
2022-08-03T12:10:37.948Z,1008.9
2022-08-03T12:11:37.956Z,1008.8
2022-08-03T12:12:37.966Z,1008.8
2022-08-03T12:14:26.892Z,1008.8
2022-08-03T12:14:48.893Z,1008.8
2022-08-03T12:15:37.970Z,1008.8
2022-08-03T12:16:37.961Z,1008.8
2022-08-03T12:17:37.952Z,1008.7
2022-08-03T12:18:38.021Z,1008.8
2022-08-03T12:19:37.951Z,1008.7
2022-08-03T12:20:37.960Z,1008.7
2022-08-03T12:21:37.960Z,1008.7
2022-08-03T12:23:38.180Z,1008.7
2022-08-03T12:24:37.962Z,1008.7
2022-08-03T12:25:39.394Z,1008.7
2022-08-03T12:26:37.959Z,1008.7
2022-08-03T12:27:37.966Z,1008.7
2022-08-03T12:28:38.602Z,1008.7
2022-08-03T12:29:37.961Z,1008.7
2022-08-03T12:30:37.958Z,1008.7
2022-08-03T12:31:37.961Z,1008.7
2022-08-03T12:32:37.966Z,1008.7
2022-08-03T12:33:37.957Z,1008.7
2022-08-03T12:34:37.970Z,1008.7
2022-08-03T12:35:37.970Z,1008.7
2022-08-03T12:36:37.975Z,1008.6
2022-08-03T12:37:38.062Z,1008.6
2022-08-03T12:38:39.412Z,1008.7
2022-08-03T12:39:37.973Z,1008.7
2022-08-03T12:41:37.970Z,1008.7
2022-08-03T12:42:37.981Z,1008.7
2022-08-03T12:44:37.974Z,1008.6
2022-08-03T12:45:37.973Z,1008.6
2022-08-03T12:46:37.970Z,1008.6
2022-08-03T12:47:37.978Z,1008.5
2022-08-03T12:48:37.967Z,1008.6
2022-08-03T12:49:37.997Z,1008.6
2022-08-03T12:50:37.969Z,1008.6
2022-08-03T12:51:37.989Z,1008.6
2022-08-03T12:52:37.967Z,1008.6
2022-08-03T12:53:37.973Z,1008.6
2022-08-03T12:54:37.968Z,1008.6
2022-08-03T12:55:57.867Z,1008.6
2022-08-03T12:56:37.973Z,1008.6
2022-08-03T12:57:37.972Z,1008.5
2022-08-03T12:58:37.983Z,1008.6
2022-08-03T12:59:40.446Z,1008.6
2022-08-03T13:00:38.044Z,1008.6
2022-08-03T13:01:38.077Z,1008.5
2022-08-03T13:02:38.047Z,1008.5
2022-08-03T13:03:39.687Z,1008.5
2022-08-03T13:04:37.991Z,1008.5
2022-08-03T13:05:38.022Z,1008.5